createdAt,value
2023-04-20T00:00:51.027Z,2.30
2023-04-20T00:03:21.846Z,2.30
2023-04-20T00:05:51.790Z,2.50
2023-04-20T00:08:18.938Z,2.20
2023-04-20T00:10:46.412Z,2.50
2023-04-20T00:13:13.783Z,2.20
2023-04-20T00:15:40.945Z,2.03
2023-04-20T00:18:08.112Z,2.30
2023-04-20T00:20:35.665Z,2.50
2023-04-20T00:23:03.471Z,2.73
2023-04-20T00:25:31.696Z,2.60
2023-04-20T00:27:59.490Z,2.07
2023-04-20T00:30:26.618Z,2.60
2023-04-20T00:32:53.789Z,2.23
2023-04-20T00:35:21.171Z,2.60
2023-04-20T00:37:48.206Z,2.50
2023-04-20T00:40:15.389Z,2.70
2023-04-20T00:42:42.449Z,2.70
2023-04-20T00:45:10.377Z,2.33
2023-04-20T00:47:38.877Z,2.77
2023-04-20T00:50:07.611Z,2.50
2023-04-20T00:52:35.744Z,2.50
2023-04-20T00:55:04.095Z,2.57
2023-04-20T00:57:32.421Z,2.00
2023-04-20T01:00:01.740Z,2.50
2023-04-20T01:02:28.967Z,2.70
2023-04-20T01:04:56.640Z,2.80
2023-04-20T01:07:23.766Z,2.60
2023-04-20T01:09:50.830Z,2.50
2023-04-20T01:12:17.981Z,2.47
2023-04-20T01:14:45.081Z,2.30
2023-04-20T01:17:15.166Z,2.40
2023-04-20T01:19:45.997Z,2.37
2023-04-20T01:22:22.891Z,2.80
2023-04-20T01:24:50.110Z,2.30
2023-04-20T01:27:17.393Z,2.47
2023-04-20T01:29:45.523Z,2.50
2023-04-20T01:32:13.110Z,2.60
2023-04-20T01:34:41.745Z,2.77
2023-04-20T01:37:09.006Z,2.97
2023-04-20T01:39:37.790Z,2.47
2023-04-20T01:42:06.191Z,2.60
2023-04-20T01:44:33.279Z,2.70
2023-04-20T01:47:00.911Z,2.53
2023-04-20T01:49:28.282Z,2.50
2023-04-20T01:51:55.839Z,3.03
2023-04-20T01:54:23.097Z,2.50
2023-04-20T01:56:50.260Z,2.80
2023-04-20T01:59:17.585Z,2.83
2023-04-20T02:01:44.826Z,2.97
2023-04-20T02:04:12.135Z,2.67
2023-04-20T02:06:40.971Z,2.83
2023-04-20T02:09:09.989Z,2.70
2023-04-20T02:11:37.159Z,2.73
2023-04-20T02:14:06.858Z,2.97
2023-04-20T02:16:35.588Z,2.67
2023-04-20T02:19:03.080Z,3.23
2023-04-20T02:21:30.622Z,2.97
2023-04-20T02:23:57.725Z,2.83
2023-04-20T02:26:27.407Z,3.00
2023-04-20T02:28:54.518Z,2.70
2023-04-20T02:31:21.785Z,2.77
2023-04-20T02:33:50.155Z,3.03
2023-04-20T02:36:17.278Z,2.73
2023-04-20T02:38:44.903Z,3.00
2023-04-20T02:41:12.149Z,3.00
2023-04-20T02:43:40.203Z,3.43
2023-04-20T02:46:08.257Z,3.40
2023-04-20T02:48:35.540Z,3.77
2023-04-20T02:51:02.660Z,3.30
2023-04-20T02:53:35.382Z,3.40
2023-04-20T02:56:28.784Z,3.47
2023-04-20T02:59:00.628Z,3.50
2023-04-20T03:01:54.264Z,3.30
2023-04-20T03:04:26.006Z,3.60
2023-04-20T03:07:19.367Z,3.50
2023-04-20T03:09:47.978Z,3.50
2023-04-20T03:12:24.225Z,3.70
2023-04-20T03:15:21.319Z,3.70
2023-04-20T03:18:00.332Z,3.47
2023-04-20T03:20:27.783Z,3.37
2023-04-20T03:22:54.952Z,3.60
2023-04-20T03:25:24.754Z,3.67
2023-04-20T03:27:58.725Z,3.77
2023-04-20T03:30:26.420Z,3.27
2023-04-20T03:33:00.165Z,3.30
2023-04-20T03:35:27.750Z,3.73
2023-04-20T03:37:55.054Z,3.80
2023-04-20T03:40:22.358Z,3.13
2023-04-20T03:42:49.442Z,3.60
2023-04-20T03:45:17.929Z,3.93
2023-04-20T03:47:45.202Z,3.33
2023-04-20T03:50:12.456Z,4.30
2023-04-20T03:52:41.082Z,3.80
2023-04-20T03:55:10.060Z,3.30
2023-04-20T03:57:41.259Z,3.43
2023-04-20T04:00:11.004Z,3.23
2023-04-20T04:02:47.724Z,3.80
2023-04-20T04:05:21.909Z,3.40
2023-04-20T04:07:50.444Z,3.67
2023-04-20T04:10:19.176Z,3.37
2023-04-20T04:12:46.684Z,3.30
2023-04-20T04:15:14.862Z,3.37
2023-04-20T04:17:51.080Z,3.50
2023-04-20T04:20:18.291Z,3.83
2023-04-20T04:22:45.718Z,3.60
2023-04-20T04:25:40.375Z,3.63
2023-04-20T04:28:08.953Z,3.80
2023-04-20T04:30:40.662Z,4.10
2023-04-20T04:33:10.243Z,3.80
2023-04-20T04:35:41.545Z,4.20
2023-04-20T04:38:09.839Z,5.30
2023-04-20T04:40:38.230Z,4.03
2023-04-20T04:43:10.094Z,4.30
2023-04-20T04:45:41.049Z,4.17
2023-04-20T04:48:12.563Z,4.30
2023-04-20T04:50:40.142Z,3.83
2023-04-20T04:53:07.765Z,4.37
2023-04-20T04:55:34.915Z,4.07
2023-04-20T04:58:02.726Z,3.87
2023-04-20T05:00:31.432Z,4.40
2023-04-20T05:02:58.657Z,3.80
2023-04-20T05:05:25.944Z,4.33
2023-04-20T05:07:53.020Z,3.80
2023-04-20T05:10:20.315Z,4.10
2023-04-20T05:12:48.686Z,3.73
2023-04-20T05:15:15.805Z,3.80
2023-04-20T05:17:42.986Z,3.93
2023-04-20T05:20:11.633Z,3.50
2023-04-20T05:22:38.734Z,3.30
2023-04-20T05:25:08.709Z,4.10
2023-04-20T05:27:36.449Z,4.07
2023-04-20T05:30:16.965Z,4.23
2023-04-20T05:32:51.148Z,3.90
2023-04-20T05:35:19.480Z,3.83
2023-04-20T05:37:47.888Z,4.07
2023-04-20T05:40:15.861Z,3.70
2023-04-20T05:42:43.075Z,4.43
2023-04-20T05:45:10.924Z,4.73
2023-04-20T05:47:38.095Z,4.33
2023-04-20T05:50:05.874Z,3.90
2023-04-20T05:52:33.051Z,4.30
2023-04-20T05:55:00.243Z,4.20
2023-04-20T05:57:27.514Z,4.60
2023-04-20T05:59:56.082Z,4.23
2023-04-20T06:02:23.435Z,3.80
2023-04-20T06:04:50.800Z,4.20
2023-04-20T06:07:17.981Z,4.17
2023-04-20T06:09:45.068Z,4.53
2023-04-20T06:12:12.328Z,4.67
2023-04-20T06:14:39.400Z,4.83
2023-04-20T06:17:06.447Z,4.63
2023-04-20T06:19:33.500Z,4.53
2023-04-20T06:22:01.293Z,5.00
2023-04-20T06:24:28.490Z,4.60
2023-04-20T06:26:55.674Z,5.73
2023-04-20T06:29:22.807Z,5.43
2023-04-20T06:31:49.952Z,4.50
2023-04-20T06:34:17.398Z,4.87
2023-04-20T06:36:44.459Z,4.90
2023-04-20T06:39:11.959Z,4.80
2023-04-20T06:41:39.332Z,4.53
2023-04-20T06:44:07.160Z,5.33
2023-04-20T06:46:34.530Z,4.87
2023-04-20T06:49:01.863Z,5.20
2023-04-20T06:51:29.541Z,4.87
2023-04-20T06:53:56.738Z,4.63
2023-04-20T06:56:23.878Z,4.73
2023-04-20T06:58:51.098Z,4.90
2023-04-20T07:01:18.292Z,4.90
2023-04-20T07:03:47.153Z,4.80
2023-04-20T07:06:15.635Z,5.03
2023-04-20T07:08:43.126Z,4.93
2023-04-20T07:11:10.264Z,4.70
2023-04-20T07:13:37.275Z,4.90
2023-04-20T07:16:04.592Z,5.00
2023-04-20T07:18:33.966Z,5.50
2023-04-20T07:21:02.937Z,5.33
2023-04-20T07:23:30.075Z,5.70
2023-04-20T07:25:57.142Z,5.43
2023-04-20T07:28:25.320Z,5.33
2023-04-20T07:30:52.373Z,5.60
2023-04-20T07:33:20.240Z,5.87
2023-04-20T07:35:47.480Z,5.03
2023-04-20T07:38:15.835Z,5.27
2023-04-20T07:40:42.923Z,5.97
2023-04-20T07:43:09.978Z,5.90
2023-04-20T07:45:41.106Z,5.40
2023-04-20T07:48:09.725Z,5.77
2023-04-20T07:50:36.877Z,5.43
2023-04-20T07:53:03.974Z,5.60
2023-04-20T07:55:31.254Z,5.47
2023-04-20T07:57:58.341Z,5.83
2023-04-20T08:00:25.908Z,6.10
2023-04-20T08:02:53.247Z,5.90
2023-04-20T08:05:20.471Z,6.10
2023-04-20T08:07:48.480Z,6.43
2023-04-20T08:10:15.884Z,6.27
2023-04-20T08:12:43.387Z,6.53
2023-04-20T08:15:11.025Z,6.13
2023-04-20T08:17:38.222Z,6.03
2023-04-20T08:20:06.361Z,5.50
2023-04-20T08:22:33.940Z,6.80
2023-04-20T08:25:00.965Z,6.20
2023-04-20T08:27:30.212Z,6.03
2023-04-20T08:29:57.490Z,6.23
2023-04-20T08:32:26.657Z,5.97
2023-04-20T08:34:54.214Z,6.80
2023-04-20T08:37:21.428Z,6.60
2023-04-20T08:39:48.564Z,6.93
2023-04-20T08:42:16.981Z,6.20
2023-04-20T08:44:44.228Z,6.40
2023-04-20T08:47:12.087Z,6.43
2023-04-20T08:49:40.154Z,6.43
2023-04-20T08:52:11.310Z,5.83
2023-04-20T08:54:45.877Z,6.43
2023-04-20T08:57:20.317Z,5.93
2023-04-20T08:59:47.436Z,6.13
2023-04-20T09:02:15.199Z,5.93
2023-04-20T09:04:42.811Z,5.93
2023-04-20T09:07:20.918Z,5.97
2023-04-20T09:09:55.546Z,6.30
2023-04-20T09:12:22.996Z,5.87
2023-04-20T09:14:50.747Z,5.57
2023-04-20T09:17:19.517Z,5.33
2023-04-20T09:19:53.476Z,5.50
2023-04-20T09:22:34.688Z,6.17
2023-04-20T09:25:16.064Z,5.47
2023-04-20T09:27:43.194Z,6.03
2023-04-20T09:30:10.946Z,5.30
2023-04-20T09:32:38.058Z,5.67
2023-04-20T09:35:07.880Z,5.30
2023-04-20T09:37:34.953Z,5.40
2023-04-20T09:40:03.597Z,4.97
2023-04-20T09:42:32.886Z,5.43
2023-04-20T09:45:01.327Z,4.73
2023-04-20T09:47:30.076Z,4.97
2023-04-20T09:49:58.527Z,4.90
2023-04-20T09:52:27.982Z,5.17
2023-04-20T09:54:55.490Z,4.30
2023-04-20T09:57:23.398Z,4.57
2023-04-20T09:59:54.481Z,4.93
2023-04-20T10:02:21.878Z,5.53
2023-04-20T10:04:59.500Z,5.20
2023-04-20T10:07:30.774Z,4.60
2023-04-20T10:10:12.576Z,4.17
2023-04-20T10:12:52.482Z,4.47
2023-04-20T10:15:21.803Z,6.73
2023-04-20T10:17:49.702Z,5.77
2023-04-20T10:20:26.558Z,11.30
2023-04-20T10:23:06.583Z,6.07
2023-04-20T10:25:33.826Z,5.40
2023-04-20T10:28:05.527Z,7.30
2023-04-20T10:30:36.124Z,8.87
2023-04-20T10:33:11.356Z,6.30
2023-04-20T10:35:48.670Z,6.37
2023-04-20T10:38:17.103Z,5.43
2023-04-20T10:40:44.146Z,6.00
2023-04-20T10:43:29.855Z,6.80
2023-04-20T10:45:57.324Z,9.43
2023-04-20T10:48:24.691Z,9.80
2023-04-20T10:50:51.738Z,5.90
2023-04-20T10:53:23.380Z,6.17
2023-04-20T10:56:00.468Z,5.90
2023-04-20T10:58:28.004Z,5.43
2023-04-20T11:01:02.914Z,5.07
2023-04-20T11:03:31.777Z,5.17
2023-04-20T11:06:04.305Z,5.47
2023-04-20T11:08:39.195Z,4.93
2023-04-20T11:11:17.408Z,5.57
2023-04-20T11:13:44.698Z,5.40
2023-04-20T11:16:16.762Z,5.67
2023-04-20T11:18:50.448Z,5.90
2023-04-20T11:21:17.745Z,5.77
2023-04-20T11:23:44.954Z,6.03
2023-04-20T11:26:12.239Z,5.83
2023-04-20T11:28:39.472Z,7.93
2023-04-20T11:31:06.739Z,5.93
2023-04-20T11:36:02.329Z,6.27
2023-04-20T11:38:31.545Z,6.10
2023-04-20T11:41:04.473Z,5.83
2023-04-20T11:43:32.420Z,6.97
2023-04-20T11:46:03.205Z,6.17
2023-04-20T11:48:33.241Z,6.97
2023-04-20T11:51:00.347Z,6.40
2023-04-20T11:53:27.460Z,7.00
2023-04-20T11:55:54.543Z,8.03
2023-04-20T11:58:21.608Z,8.50
2023-04-20T12:00:48.718Z,7.53
2023-04-20T12:03:15.979Z,7.40
2023-04-20T12:05:43.414Z,7.00
2023-04-20T12:08:10.724Z,6.70
2023-04-20T12:10:38.012Z,6.57
2023-04-20T12:13:05.054Z,5.93
2023-04-20T12:15:32.460Z,6.63
2023-04-20T12:17:59.652Z,7.00
2023-04-20T12:20:28.951Z,7.30
2023-04-20T12:22:57.196Z,7.00
2023-04-20T12:25:26.069Z,7.07
2023-04-20T12:27:53.095Z,6.60
2023-04-20T12:30:20.328Z,6.77
2023-04-20T12:32:47.479Z,6.80
2023-04-20T12:35:14.612Z,6.53
2023-04-20T12:37:41.699Z,6.07
2023-04-20T12:40:09.232Z,6.60
2023-04-20T12:42:36.324Z,6.37
2023-04-20T12:45:03.693Z,5.70
2023-04-20T12:47:30.893Z,6.40
2023-04-20T12:49:58.069Z,6.83
2023-04-20T12:52:25.323Z,5.87
2023-04-20T12:54:52.563Z,6.03
2023-04-20T12:57:19.646Z,6.03
2023-04-20T12:59:48.842Z,6.10
2023-04-20T13:02:16.325Z,6.90
2023-04-20T13:04:43.660Z,6.83
2023-04-20T13:07:10.991Z,6.10
2023-04-20T13:09:38.774Z,6.30
2023-04-20T13:12:05.994Z,5.70
2023-04-20T13:14:33.114Z,5.73
2023-04-20T13:17:02.080Z,6.50
2023-04-20T13:19:30.717Z,6.43
2023-04-20T13:21:58.397Z,6.00
2023-04-20T13:24:25.679Z,6.00
2023-04-20T13:26:58.557Z,5.60
2023-04-20T13:29:26.646Z,6.20
2023-04-20T13:31:53.828Z,5.83
2023-04-20T13:34:21.071Z,6.43
2023-04-20T13:36:48.617Z,5.97
2023-04-20T13:39:17.791Z,5.40
2023-04-20T13:41:45.624Z,5.40
2023-04-20T13:44:16.330Z,5.47
2023-04-20T13:46:45.630Z,5.67
2023-04-20T13:49:13.662Z,5.30
2023-04-20T13:51:40.974Z,15.90
2023-04-20T13:54:08.123Z,6.70
2023-04-20T13:56:35.621Z,6.97
2023-04-20T13:59:05.741Z,6.23
2023-04-20T14:01:32.941Z,7.27
2023-04-20T14:04:00.580Z,7.03
2023-04-20T14:06:28.942Z,6.50
2023-04-20T14:08:56.144Z,7.07
2023-04-20T14:11:23.460Z,7.70
2023-04-20T14:13:50.626Z,7.47
2023-04-20T14:16:17.719Z,11.20
2023-04-20T14:18:46.173Z,12.13
2023-04-20T14:21:13.559Z,12.13
2023-04-20T14:23:40.721Z,8.87
2023-04-20T14:26:07.787Z,10.47
2023-04-20T14:28:35.036Z,8.63
2023-04-20T14:31:03.132Z,14.07
2023-04-20T14:33:30.603Z,14.57
2023-04-20T14:35:57.722Z,10.77
2023-04-20T14:38:24.868Z,12.80
2023-04-20T14:40:52.541Z,8.53
2023-04-20T14:43:19.780Z,14.80
2023-04-20T14:45:46.924Z,8.80
2023-04-20T14:48:14.168Z,11.00
2023-04-20T14:50:41.325Z,10.40
2023-04-20T14:53:08.519Z,9.07
2023-04-20T14:55:36.973Z,10.50
2023-04-20T14:58:04.055Z,13.80
2023-04-20T15:00:31.259Z,10.00
2023-04-20T15:02:59.690Z,12.53
2023-04-20T15:05:28.025Z,9.60
2023-04-20T15:07:56.800Z,13.00
2023-04-20T15:10:24.008Z,9.97
2023-04-20T15:12:51.194Z,10.23
2023-04-20T15:15:18.546Z,12.50
2023-04-20T15:17:46.989Z,10.33
2023-04-20T15:20:17.500Z,10.17
2023-04-20T15:22:44.734Z,10.47
2023-04-20T15:25:12.282Z,10.03
2023-04-20T15:27:39.487Z,10.03
2023-04-20T15:30:07.304Z,15.87
2023-04-20T15:32:34.450Z,9.23
2023-04-20T15:35:02.106Z,9.37
2023-04-20T15:37:29.339Z,9.33
2023-04-20T15:39:56.578Z,9.93
2023-04-20T15:42:23.667Z,9.20
2023-04-20T15:44:50.820Z,9.03
2023-04-20T15:47:17.908Z,8.50
2023-04-20T15:49:44.992Z,8.57
2023-04-20T15:52:12.137Z,8.87
2023-04-20T15:54:39.892Z,8.40
2023-04-20T15:57:07.133Z,8.37
2023-04-20T15:59:34.270Z,9.47
2023-04-20T16:02:01.580Z,8.93
2023-04-20T16:04:28.946Z,9.83
2023-04-20T16:06:56.223Z,8.33
2023-04-20T16:09:23.957Z,8.50
2023-04-20T16:11:51.303Z,9.43
2023-04-20T16:14:18.839Z,8.30
2023-04-20T16:16:46.089Z,8.83
2023-04-20T16:19:16.167Z,7.90
2023-04-20T16:21:43.215Z,8.43
2023-04-20T16:24:10.533Z,7.83
2023-04-20T16:26:39.487Z,8.40
2023-04-20T16:29:08.086Z,7.80
2023-04-20T16:31:36.833Z,7.83
2023-04-20T16:34:04.592Z,7.73
2023-04-20T16:36:33.181Z,7.77
2023-04-20T16:39:04.919Z,7.70
2023-04-20T16:41:32.111Z,7.57
2023-04-20T16:44:00.955Z,7.77
2023-04-20T16:46:28.146Z,9.90
2023-04-20T16:48:55.325Z,8.27
2023-04-20T16:51:22.540Z,8.20
2023-04-20T16:53:49.683Z,8.60
2023-04-20T16:56:16.956Z,7.93
2023-04-20T16:58:44.066Z,8.10
2023-04-20T17:01:13.060Z,8.13
2023-04-20T17:03:40.557Z,9.00
2023-04-20T17:06:09.826Z,9.37
2023-04-20T17:08:40.015Z,10.87
2023-04-20T17:11:07.191Z,9.73
2023-04-20T17:13:34.566Z,8.93
2023-04-20T17:16:01.705Z,11.23
2023-04-20T17:18:28.890Z,9.00
2023-04-20T17:20:58.138Z,11.07
2023-04-20T17:23:26.451Z,8.80
2023-04-20T17:25:54.714Z,9.23
2023-04-20T17:28:21.848Z,9.30
2023-04-20T17:30:48.949Z,8.23
2023-04-20T17:33:16.729Z,8.83
2023-04-20T17:35:45.731Z,8.17
2023-04-20T17:38:12.970Z,8.20
2023-04-20T17:40:40.123Z,8.53
2023-04-20T17:43:07.317Z,8.40
2023-04-20T17:45:34.480Z,8.90
2023-04-20T17:48:01.708Z,8.77
2023-04-20T17:50:29.189Z,8.23
2023-04-20T17:52:56.500Z,8.13
2023-04-20T17:55:23.736Z,9.63
2023-04-20T17:57:51.073Z,8.83
2023-04-20T18:00:18.789Z,8.43
2023-04-20T18:02:46.190Z,8.63
2023-04-20T18:05:13.529Z,8.60
2023-04-20T18:07:40.779Z,9.43
2023-04-20T18:10:08.557Z,8.87
2023-04-20T18:12:36.431Z,8.80
2023-04-20T18:15:05.010Z,9.00
2023-04-20T18:17:34.197Z,9.67
2023-04-20T18:20:01.313Z,9.97
2023-04-20T18:22:28.793Z,9.97
2023-04-20T18:24:55.869Z,9.07
2023-04-20T18:27:25.495Z,8.23
2023-04-20T18:29:53.699Z,10.23
2023-04-20T18:32:21.145Z,11.40
2023-04-20T18:34:48.245Z,9.90
2023-04-20T18:37:15.698Z,10.60
2023-04-20T18:39:43.368Z,10.33
2023-04-20T18:42:10.448Z,10.70
2023-04-20T18:44:37.737Z,10.30
2023-04-20T18:47:04.930Z,10.13
2023-04-20T18:49:32.305Z,10.63
2023-04-20T18:51:59.429Z,9.70
2023-04-20T18:54:27.143Z,9.90
2023-04-20T18:56:54.902Z,9.50
2023-04-20T18:59:22.026Z,9.57
2023-04-20T19:01:49.385Z,11.07
2023-04-20T19:04:17.512Z,10.37
2023-04-20T19:06:44.799Z,10.73
2023-04-20T19:09:12.065Z,10.17
2023-04-20T19:11:39.555Z,10.07
2023-04-20T19:14:06.959Z,10.07
2023-04-20T19:16:34.434Z,10.00
2023-04-20T19:19:01.814Z,10.40
2023-04-20T19:21:28.952Z,9.80
2023-04-20T19:23:56.746Z,10.70
2023-04-20T19:26:25.065Z,11.63
2023-04-20T19:28:52.237Z,10.97
2023-04-20T19:31:19.970Z,10.80
2023-04-20T19:33:47.149Z,10.67
2023-04-20T19:36:14.499Z,10.43
2023-04-20T19:38:41.714Z,10.53
2023-04-20T19:41:08.785Z,10.57
2023-04-20T19:43:36.646Z,14.83
2023-04-20T19:46:04.058Z,11.63
2023-04-20T19:48:31.232Z,10.57
2023-04-20T19:50:59.283Z,9.93
2023-04-20T19:53:27.145Z,10.83
2023-04-20T19:55:54.364Z,10.07
2023-04-20T19:58:21.952Z,9.60
2023-04-20T20:00:49.245Z,11.07
2023-04-20T20:03:19.198Z,11.43
2023-04-20T20:05:49.165Z,11.83
2023-04-20T20:08:16.953Z,11.13
2023-04-20T20:10:44.161Z,12.23
2023-04-20T20:13:11.319Z,11.40
2023-04-20T20:15:38.536Z,10.77
2023-04-20T20:18:06.102Z,10.93
2023-04-20T20:20:33.300Z,11.00
2023-04-20T20:23:00.608Z,10.53
2023-04-20T20:25:27.743Z,11.30
2023-04-20T20:27:55.031Z,11.10
2023-04-20T20:30:22.428Z,10.97
2023-04-20T20:32:49.597Z,10.43
2023-04-20T20:35:19.143Z,10.17
2023-04-20T20:37:46.589Z,10.43
2023-04-20T20:40:15.343Z,10.60
2023-04-20T20:42:45.107Z,11.17
2023-04-20T20:45:12.910Z,11.60
2023-04-20T20:47:42.302Z,10.80
2023-04-20T20:50:11.005Z,10.50
2023-04-20T20:52:38.265Z,10.37
2023-04-20T20:55:07.012Z,11.20
2023-04-20T20:57:35.149Z,10.73
2023-04-20T21:00:02.300Z,11.63
2023-04-20T21:02:29.513Z,11.27
2023-04-20T21:04:56.670Z,10.53
2023-04-20T21:07:23.708Z,10.97
2023-04-20T21:09:50.978Z,10.70
2023-04-20T21:12:18.221Z,11.03
2023-04-20T21:14:45.398Z,10.93
2023-04-20T21:17:12.647Z,11.03
2023-04-20T21:19:39.741Z,10.20
2023-04-20T21:22:06.909Z,10.47
2023-04-20T21:24:34.040Z,10.43
2023-04-20T21:27:02.888Z,11.00
2023-04-20T21:29:30.298Z,10.57
2023-04-20T21:31:57.722Z,10.43
2023-04-20T21:34:24.858Z,9.87
2023-04-20T21:36:52.136Z,11.00
2023-04-20T21:39:19.345Z,10.60
2023-04-20T21:41:46.665Z,10.07
2023-04-20T21:44:13.728Z,11.00
2023-04-20T21:46:40.933Z,10.30
2023-04-20T21:49:08.043Z,10.27
2023-04-20T21:51:35.093Z,10.43
2023-04-20T21:54:02.843Z,9.90
2023-04-20T21:56:29.944Z,10.93
2023-04-20T21:58:56.985Z,10.63
2023-04-20T22:01:24.177Z,11.00
2023-04-20T22:03:51.964Z,9.90
2023-04-20T22:06:19.129Z,10.17
2023-04-20T22:08:46.332Z,10.60
2023-04-20T22:11:14.026Z,10.27
2023-04-20T22:13:41.360Z,9.87
2023-04-20T22:16:08.521Z,9.63
2023-04-20T22:18:35.760Z,10.70
2023-04-20T22:21:03.420Z,10.83
2023-04-20T22:23:30.505Z,11.00
2023-04-20T22:25:57.615Z,10.43
2023-04-20T22:28:24.783Z,10.03
2023-04-20T22:30:51.883Z,10.07
2023-04-20T22:33:19.236Z,9.67
2023-04-20T22:35:46.618Z,11.03
2023-04-20T22:38:13.682Z,10.23
2023-04-20T22:40:40.754Z,9.93
2023-04-20T22:43:07.788Z,9.67
2023-04-20T22:45:34.898Z,9.87
2023-04-20T22:48:02.116Z,10.60
2023-04-20T22:50:29.392Z,10.00
2023-04-20T22:52:56.519Z,10.27
2023-04-20T22:55:23.744Z,9.27
2023-04-20T22:57:50.925Z,9.90
2023-04-20T23:00:18.381Z,10.23
2023-04-20T23:02:45.640Z,9.87
2023-04-20T23:05:12.936Z,9.10
2023-04-20T23:07:40.006Z,10.77
2023-04-20T23:10:07.928Z,10.07
2023-04-20T23:12:35.000Z,10.60
2023-04-20T23:15:02.446Z,9.73
2023-04-20T23:17:29.769Z,9.10
2023-04-20T23:19:56.837Z,9.97
2023-04-20T23:22:24.277Z,9.23
2023-04-20T23:24:51.425Z,9.57
2023-04-20T23:27:18.637Z,9.27
2023-04-20T23:29:45.756Z,9.53
2023-04-20T23:32:13.095Z,9.47
2023-04-20T23:34:40.350Z,9.10
2023-04-20T23:37:07.387Z,9.20
2023-04-20T23:39:38.162Z,8.87
2023-04-20T23:42:05.923Z,9.10
2023-04-20T23:44:33.122Z,8.93
2023-04-20T23:47:00.338Z,8.40
2023-04-20T23:49:27.415Z,8.77
2023-04-20T23:51:54.472Z,8.37
2023-04-20T23:54:21.593Z,9.07
2023-04-20T23:56:48.654Z,9.00
2023-04-20T23:59:16.043Z,8.83
